Time;durP1;ratioP1;P1;durP2;ratioP2;P2;SDS_P1;SDS_P2;PMS_P1;PMS_P2;Temp;Humidity;BMP_temperature;BMP_pressure;BME280_temperature;BME280_humidity;BME280_pressure;Samples;Min_cycle;Max_cycle;Signal;HPM_P1;HPM_P2
2022/03/23 00:03:46;;;;;;;12.23;10.95;;;;;;;10.99;35.36;101493.56;10360395;28;20061;-61
2022/03/23 00:08:49;;;;;;;12.35;11.05;;;;;;;10.81;35.28;101491.13;10358630;28;20554;-62
2022/03/23 00:13:50;;;;;;;14.27;11.35;;;;;;;10.68;35.64;101492.81;10356286;28;20141;-61
2022/03/23 00:18:52;;;;;;;13.23;11.25;;;;;;;10.66;35.60;101492.03;10355679;28;20136;-61
2022/03/23 00:23:54;;;;;;;12.90;11.27;;;;;;;10.54;36.21;101489.19;10354882;28;20050;-61
2022/03/23 00:28:55;;;;;;;14.80;13.32;;;;;;;10.34;36.75;101493.03;10353574;28;20072;-59
2022/03/23 00:33:57;;;;;;;14.95;12.57;;;;;;;10.17;37.25;101464.75;10357963;28;20112;-60
2022/03/23 00:38:58;;;;;;;14.65;13.15;;;;;;;10.19;37.79;101489.47;10355570;28;20148;-62
2022/03/23 00:44:00;;;;;;;15.75;13.13;;;;;;;10.17;37.87;101479.88;10353464;28;20050;-62
2022/03/23 00:49:01;;;;;;;15.13;13.52;;;;;;;10.09;38.22;101499.78;10352811;28;20132;-60
2022/03/23 00:54:03;;;;;;;14.75;12.65;;;;;;;10.07;38.43;101498.16;10352949;28;20053;-61
2022/03/23 00:59:07;;;;;;;14.82;13.27;;;;;;;9.95;38.43;101486.44;10352682;28;20053;-60
2022/03/23 01:04:09;;;;;;;14.47;12.97;;;;;;;9.99;38.87;101498.63;10352869;28;20282;-60
2022/03/23 01:09:15;;;;;;;14.27;12.88;;;;;;;9.78;38.88;101491.88;10351106;28;20042;-62
2022/03/23 01:14:16;;;;;;;13.73;12.35;;;;;;;9.79;38.96;101494.47;10352603;28;20112;-59
2022/03/23 01:19:20;;;;;;;13.93;12.32;;;;;;;9.76;39.21;101491.97;10350509;28;20057;-62
2022/03/23 01:24:22;;;;;;;12.40;10.13;;;;;;;9.66;38.50;101485.47;10351066;28;20052;-61
2022/03/23 01:29:23;;;;;;;13.77;9.98;;;;;;;9.68;37.96;101491.53;10355864;28;20103;-61
2022/03/23 01:34:25;;;;;;;11.80;10.27;;;;;;;9.54;38.12;101481.69;10353891;28;20624;-60
2022/03/23 01:39:26;;;;;;;10.45;9.35;;;;;;;9.49;38.00;101478.47;10355984;28;20063;-60
2022/03/23 01:44:28;;;;;;;12.63;9.63;;;;;;;9.53;38.02;101486.16;10347832;28;20068;-61
2022/03/23 01:49:30;;;;;;;11.60;9.90;;;;;;;9.72;37.95;101490.44;10349080;28;20088;-59
2022/03/23 01:54:32;;;;;;;10.77;9.73;;;;;;;9.70;38.12;101490.50;10354368;28;20148;-60
2022/03/23 01:59:34;;;;;;;14.18;10.57;;;;;;;9.50;38.44;101486.34;10354798;28;20046;-60
2022/03/23 02:04:36;;;;;;;11.27;10.18;;;;;;;9.30;38.63;101489.25;10353132;28;20127;-60
2022/03/23 02:09:38;;;;;;;12.90;10.05;;;;;;;9.18;39.09;101467.72;10368733;28;20052;-60
2022/03/23 02:14:39;;;;;;;12.95;10.18;;;;;;;9.23;39.08;101494.03;10356040;28;20090;-60
2022/03/23 02:19:42;;;;;;;11.15;9.93;;;;;;;9.01;39.90;101470.47;10360708;28;20103;-60
2022/03/23 02:24:46;;;;;;;12.07;10.88;;;;;;;9.00;39.98;101487.31;10361028;28;20059;-60
2022/03/23 02:29:48;;;;;;;11.83;10.63;;;;;;;8.93;40.02;101486.81;10359995;28;20057;-60
2022/03/23 02:34:50;;;;;;;13.07;11.43;;;;;;;8.89;39.98;101484.38;10362170;28;20052;-58
2022/03/23 02:39:51;;;;;;;13.00;11.20;;;;;;;8.84;40.39;101488.16;10360954;28;20090;-60
2022/03/23 02:44:53;;;;;;;13.68;12.05;;;;;;;8.76;40.59;101479.72;10355648;28;20060;-60
2022/03/23 02:49:55;;;;;;;11.95;10.80;;;;;;;8.74;40.73;101486.94;10361977;28;20057;-60
2022/03/23 03:06:11;;;;;;;11.55;10.27;;;;;;;8.38;41.35;101495.00;10356801;28;20052;-60
2022/03/23 03:11:17;;;;;;;13.32;10.93;;;;;;;8.39;41.05;101502.00;10358637;28;20053;-60
2022/03/23 03:16:19;;;;;;;11.90;10.63;;;;;;;8.33;41.35;101505.81;10358195;28;20415;-59
2022/03/23 03:21:21;;;;;;;12.70;10.02;;;;;;;8.29;41.22;101496.31;10359439;28;20693;-60
2022/03/23 03:26:23;;;;;;;11.38;10.23;;;;;;;8.28;40.98;101502.56;10358684;28;20420;-60
2022/03/23 03:31:24;;;;;;;10.82;9.73;;;;;;;8.13;40.69;101481.16;10355036;28;20137;-60
2022/03/23 03:36:26;;;;;;;9.88;8.98;;;;;;;8.28;40.46;101506.06;10358379;28;20060;-60
2022/03/23 03:41:27;;;;;;;10.85;9.75;;;;;;;8.25;40.50;101510.69;10361889;28;20137;-61
2022/03/23 03:46:28;;;;;;;12.57;9.32;;;;;;;8.19;41.15;101521.59;10360747;28;20550;-61
2022/03/23 03:51:30;;;;;;;10.55;9.45;;;;;;;8.16;41.21;101521.75;10360274;28;20056;-59
2022/03/23 03:56:31;;;;;;;11.35;9.65;;;;;;;7.82;41.02;101486.28;10353243;28;20057;-59
2022/03/23 04:01:33;;;;;;;18.50;10.93;;;;;;;8.02;41.56;101530.41;10356937;28;20435;-59
2022/03/23 04:06:35;;;;;;;12.82;10.40;;;;;;;7.95;41.59;101528.03;10359565;28;20037;-59
2022/03/23 04:11:36;;;;;;;11.00;9.90;;;;;;;7.64;41.80;101493.34;10355792;28;20816;-59
2022/03/23 04:16:37;;;;;;;11.75;9.38;;;;;;;7.83;41.97;101525.13;10358790;28;20091;-59
2022/03/23 04:21:39;;;;;;;11.75;9.52;;;;;;;7.84;42.13;101532.16;10355918;28;20053;-59
2022/03/23 04:26:40;;;;;;;10.40;9.40;;;;;;;7.65;42.46;101511.81;10357954;28;20045;-59
2022/03/23 04:31:41;;;;;;;13.27;9.48;;;;;;;7.75;42.41;101533.47;10360260;28;20055;-59
2022/03/23 04:36:43;;;;;;;12.57;11.10;;;;;;;7.63;42.77;101539.31;10351916;28;20093;-58
2022/03/23 04:41:44;;;;;;;12.73;10.60;;;;;;;7.56;43.26;101544.06;10353533;28;20179;-59
2022/03/23 04:46:46;;;;;;;12.00;10.77;;;;;;;7.51;43.57;101556.69;10363042;28;20124;-59
2022/03/23 04:51:47;;;;;;;15.45;10.80;;;;;;;7.41;43.72;101551.78;10352947;28;20128;-60
2022/03/23 04:56:49;;;;;;;12.65;10.93;;;;;;;7.25;43.98;101545.50;10355086;28;20049;-58
2022/03/23 05:01:50;;;;;;;12.07;10.75;;;;;;;7.16;44.59;101552.09;10355803;28;20050;-59
2022/03/23 05:06:52;;;;;;;12.27;10.75;;;;;;;7.13;44.71;101540.75;10356266;28;20155;-60
2022/03/23 05:11:53;;;;;;;11.68;10.50;;;;;;;7.04;44.71;101532.31;10358188;28;20160;-62
2022/03/23 05:16:54;;;;;;;12.30;10.10;;;;;;;6.98;44.63;101553.78;10355351;28;20147;-62
2022/03/23 05:21:56;;;;;;;11.82;10.27;;;;;;;6.96;44.61;101552.13;10349268;28;20132;-61
2022/03/23 05:26:57;;;;;;;13.70;10.90;;;;;;;6.87;45.06;101545.44;10357543;28;20063;-61
2022/03/23 05:31:59;;;;;;;12.77;11.55;;;;;;;6.91;45.20;101562.91;10352258;28;20081;-61
2022/03/23 05:37:00;;;;;;;13.90;11.20;;;;;;;6.82;45.19;101543.00;10351644;28;20467;-62
2022/03/23 05:42:02;;;;;;;13.85;11.48;;;;;;;6.85;45.56;101544.66;10336254;28;20060;-62
2022/03/23 05:47:04;;;;;;;13.63;12.23;;;;;;;6.90;45.70;101540.00;10343564;28;20041;-62
2022/03/23 05:52:06;;;;;;;16.08;12.43;;;;;;;6.93;46.38;101561.03;10344411;28;20635;-62
2022/03/23 05:57:07;;;;;;;13.38;12.07;;;;;;;7.03;46.28;101561.50;10348050;28;20148;-62
2022/03/23 06:02:09;;;;;;;14.93;12.40;;;;;;;7.00;46.45;101565.16;10350608;28;20104;-61
2022/03/23 06:07:10;;;;;;;14.35;12.88;;;;;;;6.90;46.84;101563.84;10361724;28;20152;-62
2022/03/23 06:12:12;;;;;;;15.95;13.15;;;;;;;6.93;46.81;101573.44;10339275;28;20053;-61
2022/03/23 06:17:13;;;;;;;16.10;13.88;;;;;;;7.07;46.74;101569.25;10341654;28;20050;-61
2022/03/23 06:22:15;;;;;;;25.58;16.23;;;;;;;7.03;46.82;101561.50;10344900;28;20060;-62
2022/03/23 06:27:17;;;;;;;19.20;14.40;;;;;;;7.19;46.74;101566.97;10343195;28;20523;-60
2022/03/23 06:32:18;;;;;;;16.60;14.25;;;;;;;7.49;46.39;101582.38;10340906;28;20444;-60
2022/03/23 06:37:20;;;;;;;14.93;12.88;;;;;;;7.67;45.82;101588.63;10343215;28;20053;-61
2022/03/23 06:42:21;;;;;;;17.10;14.40;;;;;;;7.78;44.90;101591.63;10339571;28;20054;-60
2022/03/23 06:47:23;;;;;;;13.80;12.43;;;;;;;7.66;44.65;101587.75;10346826;28;20046;-65
2022/03/23 06:52:24;;;;;;;12.75;11.10;;;;;;;7.71;43.51;101593.69;10343834;28;20050;-63
2022/03/23 06:57:26;;;;;;;15.05;11.40;;;;;;;7.82;43.11;101609.13;10345481;28;20052;-59
2022/03/23 07:02:27;;;;;;;15.50;11.00;;;;;;;7.93;42.46;101603.28;10345369;28;20068;-59
2022/03/23 07:07:29;;;;;;;13.60;10.60;;;;;;;7.95;42.26;101604.06;10347488;28;20050;-60
2022/03/23 07:12:31;;;;;;;13.93;11.77;;;;;;;8.31;41.90;101612.03;10345952;28;20709;-59
2022/03/23 07:17:33;;;;;;;15.57;10.20;;;;;;;8.54;41.02;101617.16;10349246;28;20055;-61
2022/03/23 07:22:34;;;;;;;11.68;10.30;;;;;;;8.56;40.79;101615.31;10345950;28;20057;-59
2022/03/23 07:27:36;;;;;;;13.73;10.32;;;;;;;8.39;40.87;101618.75;10347998;28;20132;-59
2022/03/23 07:32:38;;;;;;;13.52;10.23;;;;;;;8.85;40.25;101617.31;10342856;28;20699;-60
2022/03/23 07:37:39;;;;;;;11.88;10.68;;;;;;;9.04;39.34;101584.50;10343256;28;20132;-61
2022/03/23 07:42:41;;;;;;;16.58;11.27;;;;;;;9.50;39.18;101619.25;10345021;28;20095;-60
2022/03/23 07:47:43;;;;;;;17.05;12.07;;;;;;;9.69;39.55;101618.22;10340214;28;20049;-62
2022/03/23 07:52:45;;;;;;;18.02;12.43;;;;;;;9.98;39.13;101621.06;10339435;28;20085;-59
2022/03/23 07:57:46;;;;;;;14.05;12.57;;;;;;;10.25;38.69;101622.16;10346581;28;20083;-64
2022/03/23 08:02:50;;;;;;;15.00;12.20;;;;;;;10.39;39.42;101615.22;10344972;28;20199;-60
2022/03/23 08:07:52;;;;;;;15.85;13.07;;;;;;;10.79;38.25;101626.19;10344243;28;20129;-62
2022/03/23 08:12:54;;;;;;;17.17;13.18;;;;;;;11.14;37.98;101621.41;10340942;28;21260;-61
2022/03/23 08:17:56;;;;;;;15.57;13.07;;;;;;;11.48;37.53;101622.00;10346035;28;20717;-60
2022/03/23 08:22:58;;;;;;;18.45;14.30;;;;;;;11.86;36.91;101623.19;10343475;28;20054;-59
2022/03/23 08:28:01;;;;;;;15.85;13.50;;;;;;;12.17;36.02;101613.19;10341423;28;20053;-60
2022/03/23 08:33:03;;;;;;;18.08;14.25;;;;;;;12.37;35.84;101631.44;10339413;28;21267;-62
2022/03/23 08:38:08;;;;;;;16.30;13.93;;;;;;;12.65;35.53;101629.56;10342333;28;20057;-60
2022/03/23 08:43:10;;;;;;;19.48;14.20;;;;;;;12.88;35.09;101612.00;10348672;28;20045;-60
2022/03/23 08:48:11;;;;;;;18.40;14.43;;;;;;;13.41;34.70;101630.63;10343620;28;20057;-60
2022/03/23 08:53:12;;;;;;;15.02;13.50;;;;;;;13.53;33.95;101607.50;10339725;28;20057;-59
2022/03/23 08:58:14;;;;;;;17.25;14.85;;;;;;;13.79;33.76;101627.03;10344379;28;20053;-59
2022/03/23 09:03:19;;;;;;;17.42;14.77;;;;;;;14.33;33.20;101622.22;10340796;28;20049;-63
2022/03/23 09:08:20;;;;;;;16.45;14.63;;;;;;;14.94;32.08;101615.91;10343674;28;20085;-59
2022/03/23 09:13:22;;;;;;;18.13;15.18;;;;;;;15.30;31.75;101619.38;10342739;28;20774;-61
2022/03/23 09:18:26;;;;;;;17.35;14.60;;;;;;;15.30;31.45;101617.53;10342075;28;20061;-60
2022/03/23 09:23:28;;;;;;;15.35;13.75;;;;;;;15.92;30.72;101611.78;10341056;28;20053;-59
2022/03/23 09:28:30;;;;;;;15.73;13.77;;;;;;;16.69;29.23;101610.75;10337107;28;20056;-61
2022/03/23 09:33:32;;;;;;;20.08;16.85;;;;;;;17.11;28.45;101617.03;10338611;28;20171;-61
2022/03/23 09:38:34;;;;;;;21.73;15.52;;;;;;;17.84;27.64;101600.72;10339266;28;20732;-64
2022/03/23 09:43:35;;;;;;;16.88;14.13;;;;;;;18.33;26.95;101602.63;10339348;28;20050;-62
2022/03/23 09:48:38;;;;;;;21.70;16.13;;;;;;;18.81;25.83;101598.22;10344334;28;20046;-62
2022/03/23 09:53:40;;;;;;;17.17;15.27;;;;;;;19.00;25.46;101606.28;10337861;28;20066;-60
2022/03/23 09:58:42;;;;;;;16.98;15.32;;;;;;;19.55;24.94;101588.47;10340010;28;20057;-60
2022/03/23 10:03:44;;;;;;;16.13;14.63;;;;;;;19.96;24.17;101597.06;10339137;28;20057;-62
2022/03/23 10:09:11;;;;;;;17.13;15.30;;;;;;;20.60;22.85;101595.16;10341356;28;20054;-61
2022/03/23 10:14:50;;;;;;;15.90;14.20;;;;;;;22.21;21.42;101592.72;10340491;28;20047;-59
2022/03/23 10:19:51;;;;;;;16.73;14.75;;;;;;;25.48;18.91;101586.75;10337229;28;20046;-61
2022/03/23 10:24:53;;;;;;;15.68;14.05;;;;;;;27.94;16.93;101588.06;10337588;28;20168;-61
2022/03/23 10:29:55;;;;;;;16.75;15.05;;;;;;;29.22;13.64;101576.13;10340729;28;20057;-61
2022/03/23 10:34:56;;;;;;;16.33;14.73;;;;;;;27.63;14.99;101564.84;10346524;28;20068;-60
2022/03/23 10:40:01;;;;;;;16.00;14.55;;;;;;;26.02;15.91;101560.13;10345630;28;20054;-62
2022/03/23 10:45:21;;;;;;;17.30;15.20;;;;;;;25.99;16.02;101555.06;10343993;28;20535;-61
2022/03/23 10:50:23;;;;;;;15.70;14.20;;;;;;;29.55;13.02;101551.31;10342271;28;20702;-60
2022/03/23 10:55:26;;;;;;;;;;;;;;;33.95;9.91;101553.72;10345316;28;20177;-61
2022/03/23 11:00:32;;;;;;;15.02;13.80;;;;;;;35.56;8.35;101549.47;10344579;28;19929;-61
2022/03/23 11:05:43;;;;;;;14.23;12.93;;;;;;;37.23;7.65;101532.69;10346970;28;20140;-60
2022/03/23 11:16:29;;;;;;;13.32;12.02;;;;;;;38.25;6.30;101520.13;10344270;28;20049;-62
2022/03/23 11:21:31;;;;;;;11.77;10.57;;;;;;;38.65;6.13;101512.00;10343007;28;20109;-61
2022/03/23 11:26:33;;;;;;;11.57;10.65;;;;;;;40.28;5.36;101505.72;10346188;28;20056;-61
2022/03/23 11:31:36;;;;;;;11.30;10.10;;;;;;;40.58;4.99;101500.94;10345066;28;20046;-61
2022/03/23 11:36:41;;;;;;;10.02;9.30;;;;;;;41.16;4.55;101497.16;10341223;28;20058;-62
2022/03/23 11:41:43;;;;;;;29.55;10.73;;;;;;;41.71;4.05;101499.44;10339287;28;20057;-62
2022/03/23 11:46:45;;;;;;;8.85;8.05;;;;;;;42.46;3.94;101496.72;10340549;28;20249;-62
2022/03/23 11:52:22;;;;;;;12.90;9.20;;;;;;;42.01;3.93;101491.69;10337926;28;20057;-63
2022/03/23 11:57:56;;;;;;;10.55;9.60;;;;;;;41.88;4.10;101489.69;10340722;28;20393;-62
2022/03/23 12:02:57;;;;;;;10.65;9.85;;;;;;;42.69;4.02;101469.72;10344523;28;20060;-65
2022/03/23 12:07:59;;;;;;;10.90;9.25;;;;;;;42.83;4.01;101461.28;10337745;28;20061;-63
2022/03/23 12:13:16;;;;;;;10.20;9.35;;;;;;;43.51;3.93;101459.47;10339406;28;20103;-63
2022/03/23 12:18:17;;;;;;;10.23;9.27;;;;;;;43.64;3.73;101454.13;10342496;28;20053;-64
2022/03/23 12:23:51;;;;;;;10.57;9.55;;;;;;;43.76;3.65;101448.75;10349059;28;20037;-64
2022/03/23 12:29:08;;;;;;;10.80;9.90;;;;;;;44.26;3.38;101440.16;10346972;28;20057;-63
2022/03/23 12:34:25;;;;;;;8.60;7.90;;;;;;;44.59;3.40;101431.31;10345477;28;20527;-64
2022/03/23 12:39:44;;;;;;;10.68;9.27;;;;;;;44.60;3.16;101413.31;10343765;28;20188;-62
2022/03/23 12:44:49;;;;;;;10.55;9.57;;;;;;;45.17;3.20;101422.81;10338575;28;20046;-62
2022/03/23 13:00:48;;;;;;;10.95;9.63;;;;;;;44.55;3.48;101402.25;10336875;28;20047;-63
2022/03/23 13:05:58;;;;;;;9.88;8.90;;;;;;;44.50;3.42;101399.59;10338382;28;20072;-63
2022/03/23 13:11:07;;;;;;;9.98;9.07;;;;;;;44.15;2.93;101393.84;10339889;28;20049;-63
2022/03/23 13:16:14;;;;;;;9.82;8.93;;;;;;;43.83;3.37;101381.88;10337152;28;22784;-64
2022/03/23 13:21:21;;;;;;;9.52;8.73;;;;;;;43.82;3.40;101385.81;10337330;28;20302;-63
2022/03/23 13:26:25;;;;;;;8.75;8.05;;;;;;;44.36;3.71;101370.84;10337865;28;20463;-64
2022/03/23 13:31:34;;;;;;;10.25;8.88;;;;;;;43.77;3.49;101374.72;10335476;28;20176;-64
2022/03/23 13:36:40;;;;;;;8.85;8.13;;;;;;;42.68;4.20;101356.09;10331983;28;20061;-64
2022/03/23 13:47:04;;;;;;;10.20;9.30;;;;;;;36.84;5.93;101358.34;10334363;28;20049;-64
2022/03/23 13:52:05;;;;;;;9.63;8.63;;;;;;;34.03;8.46;101342.59;10340903;28;20124;-63
2022/03/23 13:57:09;;;;;;;10.48;9.55;;;;;;;31.69;8.86;101332.00;10341488;28;20050;-63
2022/03/23 14:02:10;;;;;;;10.68;9.60;;;;;;;30.75;9.57;101342.72;10341297;28;20144;-63
2022/03/23 14:07:13;;;;;;;10.63;8.93;;;;;;;29.93;9.96;101328.19;10341819;28;20050;-61
2022/03/23 14:12:16;;;;;;;11.82;9.50;;;;;;;29.29;10.22;101321.13;10348631;28;20456;-60
2022/03/23 14:17:23;;;;;;;11.48;10.48;;;;;;;29.07;10.88;101329.69;10345446;28;20060;-65
2022/03/23 14:22:26;;;;;;;11.55;10.35;;;;;;;28.47;11.23;101330.78;10347309;28;20520;-62
2022/03/23 14:27:33;;;;;;;14.43;11.30;;;;;;;27.66;11.77;101327.34;10346794;28;20057;-61
2022/03/23 14:32:39;;;;;;;12.15;10.05;;;;;;;27.21;12.33;101321.63;10342174;28;20484;-61
2022/03/23 14:37:43;;;;;;;13.00;11.70;;;;;;;26.66;12.31;101312.63;10342615;28;20068;-62
2022/03/23 14:42:44;;;;;;;11.80;10.52;;;;;;;26.29;12.67;101316.47;10340419;28;20456;-60
2022/03/23 14:47:49;;;;;;;13.17;11.33;;;;;;;25.59;13.03;101296.44;10345359;28;20084;-61
2022/03/23 14:52:50;;;;;;;11.80;10.80;;;;;;;24.97;14.03;101303.41;10343570;28;20540;-61
2022/03/23 14:57:52;;;;;;;12.88;11.63;;;;;;;24.65;13.82;101279.19;10346775;28;20057;-60
2022/03/23 15:02:53;;;;;;;12.38;11.07;;;;;;;24.44;14.18;101288.13;10347814;28;20054;-60
2022/03/23 15:13:17;;;;;;;12.57;11.48;;;;;;;23.75;14.82;101272.03;10345221;28;20556;-61
2022/03/23 15:18:19;;;;;;;12.15;10.88;;;;;;;23.50;15.11;101279.63;10339392;28;20481;-63
2022/03/23 15:23:20;;;;;;;12.73;11.40;;;;;;;23.37;15.44;101278.34;10341752;28;20767;-61
2022/03/23 15:28:21;;;;;;;12.15;11.02;;;;;;;23.00;15.91;101279.13;10342004;28;20091;-61
2022/03/23 15:33:23;;;;;;;12.32;11.15;;;;;;;22.78;15.84;101268.06;10345846;28;20050;-60
2022/03/23 15:38:30;;;;;;;13.15;11.95;;;;;;;22.53;16.32;101270.94;10348862;28;20055;-60
2022/03/23 15:43:33;;;;;;;13.48;11.50;;;;;;;22.28;16.51;101258.47;10341100;28;20073;-59
2022/03/23 15:48:35;;;;;;;12.35;11.13;;;;;;;22.17;16.73;101274.13;10342650;28;20119;-60
2022/03/23 15:53:40;;;;;;;13.82;12.35;;;;;;;21.99;16.57;101265.34;10342068;28;20556;-61
2022/03/23 15:58:48;;;;;;;13.35;12.15;;;;;;;21.72;17.11;101253.91;10340417;28;20590;-60
2022/03/23 16:03:49;;;;;;;13.20;12.00;;;;;;;21.61;17.51;101260.53;10340336;28;20076;-60
2022/03/23 16:08:51;;;;;;;13.85;12.45;;;;;;;21.41;17.66;101251.91;10343067;28;20157;-59
2022/03/23 16:13:54;;;;;;;13.73;11.80;;;;;;;21.33;17.86;101254.59;10344450;28;20037;-60
2022/03/23 16:18:56;;;;;;;12.32;11.13;;;;;;;21.22;18.25;101260.38;10345106;28;20057;-61
2022/03/23 16:23:58;;;;;;;13.57;12.38;;;;;;;20.93;18.31;101248.19;10343071;28;20050;-60
2022/03/23 16:29:00;;;;;;;12.98;11.68;;;;;;;20.85;18.36;101265.22;10340799;28;20372;-63
2022/03/23 16:34:01;;;;;;;16.02;11.82;;;;;;;20.72;18.76;101267.59;10342968;28;20542;-61
2022/03/23 16:39:05;;;;;;;13.60;12.20;;;;;;;20.48;18.82;101256.50;10339376;28;20184;-60
2022/03/23 16:44:11;;;;;;;14.55;12.02;;;;;;;20.35;19.09;101283.13;10341319;28;20623;-61
2022/03/23 16:49:16;;;;;;;13.73;11.82;;;;;;;20.20;18.88;101276.66;10340145;28;20119;-61
2022/03/23 16:54:18;;;;;;;13.07;11.77;;;;;;;20.05;18.92;101266.44;10338488;28;20060;-61
2022/03/23 16:59:23;;;;;;;19.45;11.93;;;;;;;19.95;19.08;101276.50;10345178;28;20065;-60
2022/03/23 17:15:08;;;;;;;20.55;12.35;;;;;;;19.50;19.70;101286.50;10330828;28;20151;-61
2022/03/23 17:20:10;;;;;;;15.20;12.25;;;;;;;19.29;19.94;101283.28;10341587;28;20068;-60
2022/03/23 17:25:13;;;;;;;19.58;12.63;;;;;;;19.16;20.40;101289.09;10341656;28;20167;-60
2022/03/23 17:30:17;;;;;;;28.25;13.25;;;;;;;19.00;21.15;101293.31;10344605;28;20131;-61
2022/03/23 17:35:19;;;;;;;44.58;16.55;;;;;;;18.83;20.76;101288.72;10343005;28;20127;-61
2022/03/23 17:40:20;;;;;;;20.98;14.27;;;;;;;18.67;20.93;101292.94;10366773;28;20539;-61
2022/03/23 17:45:22;;;;;;;18.10;12.68;;;;;;;18.56;22.19;101293.16;10347547;28;20057;-63
2022/03/23 17:50:23;;;;;;;17.65;13.35;;;;;;;18.33;22.60;101281.91;10345676;28;20527;-63
2022/03/23 17:55:25;;;;;;;25.33;16.27;;;;;;;18.25;22.69;101297.97;10344908;28;20053;-62
2022/03/23 18:00:26;;;;;;;29.73;15.45;;;;;;;18.07;23.22;101287.13;10342862;28;20060;-62
2022/03/23 18:05:28;;;;;;;33.25;18.20;;;;;;;17.98;23.76;101297.78;10339591;28;20723;-62
2022/03/23 18:10:30;;;;;;;23.40;15.32;;;;;;;17.76;23.71;101290.88;10341285;28;20491;-62
2022/03/23 18:15:32;;;;;;;20.00;16.40;;;;;;;17.69;24.09;101302.38;10341157;28;20208;-62
2022/03/23 18:20:35;;;;;;;18.83;16.42;;;;;;;17.46;24.44;101291.94;10338984;28;20056;-62
2022/03/23 18:25:36;;;;;;;19.50;17.50;;;;;;;17.41;25.04;101307.63;10336388;28;20056;-62
2022/03/23 18:30:38;;;;;;;22.17;16.23;;;;;;;17.29;24.97;101310.50;10341780;28;20049;-62
2022/03/23 18:35:39;;;;;;;20.25;17.45;;;;;;;17.10;25.30;101313.19;10341436;28;20343;-62
2022/03/23 18:40:41;;;;;;;17.73;15.82;;;;;;;17.07;25.78;101318.81;10339590;28;20148;-61
2022/03/23 18:45:43;;;;;;;16.65;14.98;;;;;;;16.93;25.05;101312.88;10337725;28;20046;-62
2022/03/23 18:50:44;;;;;;;16.58;14.90;;;;;;;16.80;25.20;101328.38;10340725;28;20424;-62
2022/03/23 18:55:46;;;;;;;19.38;16.00;;;;;;;16.73;25.20;101327.22;10338548;28;20136;-62
2022/03/23 19:00:47;;;;;;;15.85;14.25;;;;;;;16.63;24.64;101320.97;10344204;28;20054;-62
2022/03/23 19:05:49;;;;;;;17.17;15.25;;;;;;;16.67;24.86;101327.78;10341313;28;20417;-62
2022/03/23 19:10:50;;;;;;;17.73;15.10;;;;;;;16.59;24.83;101323.94;10346253;28;20056;-63
2022/03/23 19:15:52;;;;;;;17.25;15.00;;;;;;;16.52;24.78;101309.34;10343946;28;20052;-62
2022/03/23 19:20:55;;;;;;;16.42;14.73;;;;;;;16.46;25.51;101326.00;10342072;28;20064;-63
2022/03/23 19:25:57;;;;;;;17.80;15.05;;;;;;;16.38;24.95;101315.09;10335174;28;20073;-63
2022/03/23 19:30:59;;;;;;;19.55;16.48;;;;;;;16.29;25.55;101323.94;10344328;28;20420;-63
2022/03/23 19:36:02;;;;;;;20.83;17.75;;;;;;;16.12;25.87;101322.75;10347346;28;20058;-62
2022/03/23 19:41:04;;;;;;;20.83;16.03;;;;;;;16.17;25.44;101337.47;10344178;28;20064;-64
2022/03/23 19:46:07;;;;;;;18.33;16.42;;;;;;;16.03;26.25;101335.13;10344808;28;20521;-62
2022/03/23 19:51:09;;;;;;;19.00;16.95;;;;;;;15.89;26.35;101339.84;10346515;28;20057;-62
2022/03/23 19:56:10;;;;;;;19.40;16.27;;;;;;;15.80;26.83;101334.44;10341634;28;20200;-63
2022/03/23 20:01:12;;;;;;;18.50;14.60;;;;;;;15.69;26.82;101335.34;10341699;28;20068;-62
2022/03/23 20:06:15;;;;;;;18.88;15.43;;;;;;;15.62;27.04;101336.81;10339830;28;20501;-63
2022/03/23 20:11:17;;;;;;;15.98;13.93;;;;;;;15.63;26.90;101333.16;10343137;28;20793;-62
2022/03/23 20:16:21;;;;;;;16.20;14.63;;;;;;;15.48;26.52;101314.69;10347555;28;20080;-63
2022/03/23 20:21:23;;;;;;;21.55;17.08;;;;;;;15.47;27.84;101329.06;10348874;28;20088;-63
2022/03/23 20:26:24;;;;;;;19.25;16.52;;;;;;;15.42;28.46;101342.03;10341585;28;20061;-63
2022/03/23 20:31:26;;;;;;;19.15;15.77;;;;;;;15.20;28.70;101325.03;10346156;28;20068;-64
2022/03/23 20:36:27;;;;;;;18.40;16.40;;;;;;;15.20;29.46;101343.81;10343219;28;20045;-63
2022/03/23 20:41:30;;;;;;;20.15;16.80;;;;;;;15.16;28.65;101342.38;10342968;28;20653;-62
2022/03/23 20:46:33;;;;;;;22.48;20.17;;;;;;;15.11;29.38;101349.09;10348456;28;20060;-62
2022/03/23 20:51:36;;;;;;;20.05;17.95;;;;;;;14.96;29.83;101340.47;10342445;28;20500;-62
2022/03/23 20:56:38;;;;;;;20.77;18.52;;;;;;;14.95;30.03;101346.81;10340195;28;20049;-63
2022/03/23 21:01:39;;;;;;;18.58;16.75;;;;;;;14.71;30.13;101342.47;10348530;28;20255;-62
2022/03/23 21:06:41;;;;;;;21.35;17.52;;;;;;;14.62;30.56;101338.72;10347000;28;21266;-62
2022/03/23 21:11:42;;;;;;;19.40;17.20;;;;;;;14.66;30.77;101336.63;10347395;28;20126;-61
2022/03/23 21:16:44;;;;;;;21.63;18.08;;;;;;;14.49;30.85;101352.19;10335812;28;20049;-61
2022/03/23 21:21:50;;;;;;;23.42;19.15;;;;;;;14.26;31.43;101355.84;10353125;28;20473;-63
2022/03/23 21:26:51;;;;;;;21.70;18.95;;;;;;;13.93;31.85;101342.31;10354957;28;20129;-62
2022/03/23 21:31:53;;;;;;;23.45;19.55;;;;;;;14.01;32.11;101354.25;10353694;28;20730;-64
2022/03/23 21:36:54;;;;;;;22.48;18.50;;;;;;;13.88;31.88;101347.16;10353575;28;20045;-60
2022/03/23 21:41:56;;;;;;;22.20;19.90;;;;;;;13.95;32.26;101366.28;10355774;28;20057;-61
2022/03/23 21:46:57;;;;;;;21.73;18.55;;;;;;;13.91;32.12;101367.47;10356694;28;20068;-63
2022/03/23 21:51:58;;;;;;;22.52;18.75;;;;;;;13.78;32.62;101376.47;10352002;28;20065;-62
2022/03/23 21:57:00;;;;;;;21.88;18.75;;;;;;;13.44;32.94;101346.91;10353229;28;20056;-62
2022/03/23 22:02:02;;;;;;;21.95;19.17;;;;;;;13.39;33.13;101366.94;10347568;28;20084;-61
2022/03/23 22:07:05;;;;;;;25.77;19.90;;;;;;;13.40;33.16;101372.16;10351701;28;20041;-61
2022/03/23 22:12:07;;;;;;;21.60;18.55;;;;;;;13.38;32.94;101358.06;10351837;28;20060;-61
2022/03/23 22:17:08;;;;;;;23.20;19.55;;;;;;;13.29;33.05;101353.38;10349298;28;20061;-61
2022/03/23 22:22:09;;;;;;;21.70;18.52;;;;;;;13.18;33.52;101362.19;10344979;28;20053;-61
2022/03/23 22:27:11;;;;;;;20.92;18.63;;;;;;;13.16;33.50;101364.09;10349591;28;20054;-60
2022/03/23 22:32:13;;;;;;;21.50;18.25;;;;;;;13.08;33.77;101361.16;10359986;28;20088;-60
2022/03/23 22:37:15;;;;;;;25.48;20.55;;;;;;;13.11;33.86;101357.41;10361062;28;20046;-60
2022/03/23 22:42:16;;;;;;;20.88;17.92;;;;;;;13.00;34.25;101360.84;10360558;28;20054;-61
2022/03/23 22:47:18;;;;;;;24.52;19.42;;;;;;;12.85;34.56;101344.13;10359039;28;20049;-61
2022/03/23 22:52:19;;;;;;;22.50;19.55;;;;;;;12.85;35.00;101357.47;10358003;28;20132;-59
2022/03/23 22:57:20;;;;;;;22.02;19.73;;;;;;;12.73;35.22;101346.72;10358048;28;20069;-61
2022/03/23 23:02:22;;;;;;;21.27;18.95;;;;;;;12.71;35.46;101345.97;10356690;28;20052;-61
2022/03/23 23:07:24;;;;;;;20.90;18.70;;;;;;;12.58;35.74;101345.19;10355986;28;20053;-62
2022/03/23 23:12:26;;;;;;;23.70;19.63;;;;;;;12.52;36.12;101340.25;10359075;28;20457;-62
2022/03/23 23:17:27;;;;;;;24.05;19.42;;;;;;;12.55;36.30;101329.38;10357932;28;20045;-63
2022/03/23 23:22:29;;;;;;;23.15;19.10;;;;;;;12.44;36.18;101329.28;10354829;28;20045;-61
2022/03/23 23:27:34;;;;;;;21.08;18.83;;;;;;;12.15;36.22;101308.16;10351374;28;20053;-61
2022/03/23 23:32:36;;;;;;;23.92;18.38;;;;;;;12.33;36.54;101328.22;10359395;28;20136;-60
2022/03/23 23:37:38;;;;;;;23.50;18.45;;;;;;;12.36;36.48;101333.34;10356525;28;20050;-60
2022/03/23 23:42:40;;;;;;;20.20;18.10;;;;;;;12.28;36.88;101335.72;10352818;28;20168;-63